Time;durP1;ratioP1;P1;durP2;ratioP2;P2;SDS_P1;SDS_P2;PMS_P1;PMS_P2;Temp;Humidity;BMP_temperature;BMP_pressure;BME280_temperature;BME280_humidity;BME280_pressure;Samples;Min_cycle;Max_cycle;Signal;HPM_P1;HPM_P2
2023/07/11 00:00:53;;;;;;;7.07;2.40;;;20.10;99.90;;;;;;4984581;28;20064;-75
2023/07/11 00:03:39;;;;;;;4.30;2.50;;;20.10;99.90;;;;;;4975874;28;20046;-75
2023/07/11 00:06:25;;;;;;;5.10;2.25;;;20.10;99.90;;;;;;4976704;28;20057;-75
2023/07/11 00:09:11;;;;;;;7.13;2.40;;;20.10;99.90;;;;;;4982336;28;20042;-75
2023/07/11 00:11:57;;;;;;;4.90;2.15;;;20.00;99.90;;;;;;4989220;28;20048;-75
2023/07/11 00:14:43;;;;;;;9.15;2.67;;;20.00;99.90;;;;;;4995260;28;20041;-74
2023/07/11 00:17:29;;;;;;;6.72;2.53;;;19.90;99.90;;;;;;4996863;28;20058;-74
2023/07/11 00:20:16;;;;;;;5.53;2.17;;;19.90;99.90;;;;;;4994616;28;20038;-74
2023/07/11 00:23:02;;;;;;;4.82;2.75;;;19.80;99.90;;;;;;4991287;28;20104;-74
2023/07/11 00:25:48;;;;;;;7.45;3.00;;;19.80;99.90;;;;;;4989379;28;20038;-74
2023/07/11 00:28:34;;;;;;;6.05;1.98;;;19.70;99.90;;;;;;4998896;28;20385;-74
2023/07/11 00:31:20;;;;;;;5.78;2.40;;;19.70;99.90;;;;;;4991759;28;20571;-74
2023/07/11 00:34:06;;;;;;;4.32;2.10;;;19.70;99.90;;;;;;4991246;28;20347;-74
2023/07/11 00:36:52;;;;;;;5.63;2.55;;;19.60;99.90;;;;;;4983469;28;20048;-74
2023/07/11 00:39:38;;;;;;;5.20;2.10;;;19.60;99.90;;;;;;4988567;28;20480;-74
2023/07/11 00:42:24;;;;;;;4.13;1.88;;;19.50;99.90;;;;;;4983216;28;20056;-74
2023/07/11 00:45:47;;;;;;;4.97;1.65;;;19.40;99.90;;;;;;4989040;28;20054;-74
2023/07/11 00:48:35;;;;;;;4.18;2.08;;;19.40;99.90;;;;;;5008170;28;20068;-73
2023/07/11 00:51:32;;;;;;;5.95;2.25;;;19.40;99.90;;;;;;4988616;28;20187;-73
2023/07/11 00:54:19;;;;;;;5.50;2.30;;;19.30;99.90;;;;;;5012233;28;20045;-74
2023/07/11 00:57:08;;;;;;;4.72;2.13;;;19.20;99.90;;;;;;4993699;28;20041;-74
2023/07/11 00:59:54;;;;;;;8.02;2.20;;;19.20;99.90;;;;;;4994349;28;20041;-77
2023/07/11 01:02:39;;;;;;;4.15;2.10;;;19.10;99.90;;;;;;4991106;28;20508;-77
2023/07/11 01:05:25;;;;;;;7.90;2.20;;;19.10;99.90;;;;;;4974427;28;20038;-77
2023/07/11 01:08:11;;;;;;;7.25;2.28;;;19.10;99.90;;;;;;4986946;28;20038;-77
2023/07/11 01:10:57;;;;;;;4.22;2.05;;;19.00;99.90;;;;;;4991387;28;20044;-77
2023/07/11 01:13:43;;;;;;;3.92;1.77;;;19.00;99.90;;;;;;4996277;28;20030;-77
2023/07/11 01:16:29;;;;;;;5.85;2.10;;;18.90;99.90;;;;;;4990085;28;20143;-78
2023/07/11 01:19:15;;;;;;;6.95;2.28;;;19.00;99.90;;;;;;4992325;28;20034;-77
2023/07/11 01:22:01;;;;;;;6.25;2.42;;;18.90;99.90;;;;;;4999285;28;20033;-77
2023/07/11 01:24:49;;;;;;;4.80;2.13;;;18.90;99.90;;;;;;4995462;28;20025;-76
2023/07/11 01:27:36;;;;;;;4.22;1.85;;;18.90;99.90;;;;;;4990748;28;20121;-76
2023/07/11 01:30:22;;;;;;;5.70;2.05;;;18.90;99.90;;;;;;4996713;28;20037;-77
2023/07/11 01:33:08;;;;;;;4.53;2.08;;;18.80;99.90;;;;;;4994997;28;20092;-77
2023/07/11 01:35:54;;;;;;;7.15;2.05;;;18.80;99.90;;;;;;5002156;28;20039;-77
2023/07/11 01:38:42;;;;;;;4.80;2.10;;;18.80;99.90;;;;;;4990587;28;20388;-76
2023/07/11 01:41:28;;;;;;;5.07;1.88;;;18.80;99.90;;;;;;4997324;28;20048;-76
2023/07/11 01:44:14;;;;;;;12.20;2.75;;;18.80;99.90;;;;;;4989883;28;20042;-76
2023/07/11 01:47:02;;;;;;;2.70;2.00;;;18.70;99.90;;;;;;4996480;28;20041;-77
2023/07/11 01:49:48;;;;;;;6.43;2.22;;;18.70;99.90;;;;;;5000497;28;20343;-77
2023/07/11 01:52:34;;;;;;;6.95;2.10;;;18.60;99.90;;;;;;4991965;28;20065;-77
2023/07/11 01:55:20;;;;;;;5.88;2.40;;;18.60;99.90;;;;;;4990714;28;20074;-77
2023/07/11 01:58:06;;;;;;;4.18;1.92;;;18.50;99.90;;;;;;4990099;28;20127;-77
2023/07/11 02:00:51;;;;;;;7.72;2.10;;;18.60;99.90;;;;;;4985302;28;20486;-76
2023/07/11 02:03:37;;;;;;;5.78;2.45;;;18.50;99.90;;;;;;4983951;28;20041;-77
2023/07/11 02:06:23;;;;;;;4.55;2.40;;;18.50;99.90;;;;;;4989288;28;20124;-76
2023/07/11 02:09:12;;;;;;;7.93;2.03;;;18.50;99.90;;;;;;4988280;28;20034;-77
2023/07/11 02:11:58;;;;;;;4.68;2.42;;;18.40;99.90;;;;;;4986090;28;20045;-76
2023/07/11 02:14:46;;;;;;;4.95;2.15;;;18.40;99.90;;;;;;4993967;28;20436;-76
2023/07/11 02:17:32;;;;;;;6.78;2.42;;;18.40;99.90;;;;;;4979173;28;20049;-76
2023/07/11 02:20:18;;;;;;;6.57;2.33;;;18.40;99.90;;;;;;4999305;28;20077;-77
2023/07/11 02:23:04;;;;;;;4.93;2.05;;;18.30;99.90;;;;;;4981218;28;20529;-76
2023/07/11 02:25:55;;;;;;;3.92;1.85;;;18.30;99.90;;;;;;4991841;28;20053;-77
2023/07/11 02:28:40;;;;;;;6.25;2.30;;;18.20;99.90;;;;;;4987461;28;20046;-76
2023/07/11 02:31:26;;;;;;;6.95;2.42;;;18.20;99.90;;;;;;4977741;28;20038;-77
2023/07/11 02:34:13;;;;;;;5.43;2.10;;;18.20;99.90;;;;;;4987761;28;20500;-77
2023/07/11 02:36:58;;;;;;;7.13;2.10;;;18.20;99.90;;;;;;4993756;28;20046;-77
2023/07/11 02:39:45;;;;;;;6.30;2.00;;;18.20;99.90;;;;;;4995163;28;20041;-77
2023/07/11 02:42:31;;;;;;;4.63;2.80;;;18.10;99.90;;;;;;5000860;28;20058;-76
2023/07/11 02:45:16;;;;;;;2.95;1.83;;;18.20;99.90;;;;;;4994274;28;20077;-76
2023/07/11 02:48:03;;;;;;;5.45;2.10;;;18.10;99.90;;;;;;4985392;28;20486;-77
2023/07/11 02:50:49;;;;;;;4.40;2.47;;;18.10;99.90;;;;;;4987915;28;20069;-76
2023/07/11 02:53:35;;;;;;;6.60;2.60;;;18.10;99.90;;;;;;4995203;28;20038;-77
2023/07/11 02:56:21;;;;;;;6.20;2.30;;;18.00;99.90;;;;;;4997810;28;20526;-76
2023/07/11 02:59:07;;;;;;;3.97;2.42;;;18.00;99.90;;;;;;4973195;28;20046;-76
2023/07/11 03:01:53;;;;;;;5.85;2.30;;;18.00;99.90;;;;;;4996607;28;20041;-76
2023/07/11 03:04:38;;;;;;;6.95;2.30;;;18.00;99.90;;;;;;5012272;28;20046;-77
2023/07/11 03:07:24;;;;;;;8.05;2.10;;;18.00;99.90;;;;;;4992222;28;20045;-76
2023/07/11 03:10:10;;;;;;;5.93;2.22;;;18.00;99.90;;;;;;5002442;28;20541;-76
2023/07/11 03:12:56;;;;;;;4.00;2.55;;;18.00;99.90;;;;;;4968104;28;20053;-76
2023/07/11 03:15:42;;;;;;;8.48;2.35;;;18.00;99.90;;;;;;4980683;28;20053;-76
2023/07/11 03:18:28;;;;;;;5.97;2.17;;;18.00;99.90;;;;;;4979849;28;20062;-76
2023/07/11 03:21:14;;;;;;;3.72;2.05;;;18.00;99.90;;;;;;4998887;28;20038;-76
2023/07/11 03:24:00;;;;;;;3.42;1.92;;;17.90;99.90;;;;;;4992983;28;20048;-76
2023/07/11 03:26:47;;;;;;;7.47;2.47;;;17.90;99.90;;;;;;4997388;28;20118;-76
2023/07/11 03:29:32;;;;;;;6.35;2.13;;;17.90;99.90;;;;;;4990737;28;20052;-76
2023/07/11 03:32:18;;;;;;;6.05;2.33;;;17.80;99.90;;;;;;5006072;28;20044;-73
2023/07/11 03:35:05;;;;;;;4.78;2.35;;;17.80;99.90;;;;;;4989029;28;20057;-73
2023/07/11 03:37:51;;;;;;;4.25;2.50;;;17.80;99.90;;;;;;4991216;28;20137;-73
2023/07/11 03:40:36;;;;;;;5.05;2.40;;;17.80;99.90;;;;;;4979417;28;20493;-74
2023/07/11 03:43:22;;;;;;;6.30;2.53;;;17.80;99.90;;;;;;4986261;28;20038;-74
2023/07/11 03:46:08;;;;;;;4.78;2.50;;;17.80;99.90;;;;;;4975202;28;20132;-74
2023/07/11 03:48:58;;;;;;;4.10;2.42;;;17.80;99.90;;;;;;4990536;28;20063;-73
2023/07/11 03:51:43;;;;;;;6.20;2.10;;;17.70;99.90;;;;;;4988062;28;20049;-73
2023/07/11 03:54:29;;;;;;;8.52;2.55;;;17.70;99.90;;;;;;4990544;28;20374;-73
2023/07/11 03:57:16;;;;;;;4.88;2.20;;;17.70;99.90;;;;;;4984431;28;20046;-73
2023/07/11 04:00:03;;;;;;;4.45;2.13;;;17.70;99.90;;;;;;4995805;28;20042;-73
2023/07/11 04:02:50;;;;;;;7.70;3.08;;;17.70;99.90;;;;;;4978760;28;20050;-73
2023/07/11 04:05:35;;;;;;;3.80;2.28;;;17.70;99.90;;;;;;4989506;28;20462;-73
2023/07/11 04:08:22;;;;;;;8.00;2.47;;;17.60;99.90;;;;;;4971829;28;20042;-73
2023/07/11 04:11:08;;;;;;;6.82;2.50;;;17.60;99.90;;;;;;4977630;28;20169;-74
2023/07/11 04:13:54;;;;;;;6.97;2.58;;;17.60;99.90;;;;;;4979054;28;20034;-76
2023/07/11 04:16:40;;;;;;;6.15;2.47;;;17.60;99.90;;;;;;4989402;28;20045;-76
2023/07/11 04:19:26;;;;;;;9.95;2.83;;;17.60;99.90;;;;;;4974839;28;20498;-76
2023/07/11 04:22:12;;;;;;;7.50;2.80;;;17.50;99.90;;;;;;4980591;28;20038;-76
2023/07/11 04:24:58;;;;;;;8.55;2.67;;;17.50;99.90;;;;;;4995673;28;20084;-76
2023/07/11 04:27:44;;;;;;;8.10;1.98;;;17.50;99.90;;;;;;4994179;28;20118;-76
2023/07/11 04:30:30;;;;;;;5.90;2.75;;;17.50;99.90;;;;;;4977776;28;20039;-77
2023/07/11 04:33:16;;;;;;;5.80;2.53;;;17.50;99.90;;;;;;4975698;28;20049;-73
2023/07/11 04:36:10;;;;;;;8.48;2.50;;;17.50;99.90;;;;;;4984799;28;20096;-73
2023/07/11 04:38:56;;;;;;;5.75;2.20;;;17.50;99.90;;;;;;4982573;28;20078;-74
2023/07/11 04:41:42;;;;;;;9.75;2.22;;;17.50;99.90;;;;;;4987913;28;20070;-73
2023/07/11 04:44:29;;;;;;;9.07;2.10;;;17.50;99.90;;;;;;4997625;28;20050;-73
2023/07/11 04:47:15;;;;;;;8.57;2.38;;;17.50;99.90;;;;;;4988559;28;20046;-73
2023/07/11 04:50:02;;;;;;;5.70;1.95;;;17.50;99.90;;;;;;4991450;28;20046;-73
2023/07/11 04:52:49;;;;;;;4.93;2.50;;;17.50;99.90;;;;;;4974447;28;20039;-73
2023/07/11 04:55:35;;;;;;;10.80;2.17;;;17.60;99.90;;;;;;4983225;28;20108;-73
2023/07/11 04:58:21;;;;;;;9.10;2.50;;;17.60;99.90;;;;;;4981362;28;20134;-73
2023/07/11 05:01:07;;;;;;;6.47;2.30;;;17.60;99.90;;;;;;5002399;28;20050;-73
2023/07/11 05:03:53;;;;;;;9.20;2.95;;;17.60;99.90;;;;;;4986665;28;20046;-73
2023/07/11 05:06:40;;;;;;;7.25;2.38;;;17.70;99.90;;;;;;4980429;28;20049;-73
2023/07/11 05:09:28;;;;;;;8.57;2.58;;;17.70;99.90;;;;;;4977952;28;20039;-74
2023/07/11 05:12:14;;;;;;;11.32;2.30;;;17.70;99.90;;;;;;4968030;28;20121;-74
2023/07/11 05:15:04;;;;;;;11.23;2.42;;;17.80;99.90;;;;;;4982581;28;20685;-73
2023/07/11 05:17:50;;;;;;;9.45;2.92;;;17.80;99.90;;;;;;4978588;28;20841;-73
2023/07/11 05:20:36;;;;;;;8.65;2.67;;;17.90;99.90;;;;;;4980643;28;20042;-74
2023/07/11 05:23:23;;;;;;;9.65;2.28;;;17.90;99.90;;;;;;4977331;28;20838;-74
2023/07/11 05:26:09;;;;;;;10.65;2.53;;;18.00;99.90;;;;;;4971553;28;20467;-74
2023/07/11 05:28:55;;;;;;;12.13;2.53;;;18.00;99.90;;;;;;4970607;28;20092;-74
2023/07/11 05:31:42;;;;;;;7.70;2.35;;;18.10;99.90;;;;;;4966433;28;20142;-74
2023/07/11 05:34:28;;;;;;;7.93;2.45;;;18.10;99.90;;;;;;4967252;28;20053;-74
2023/07/11 05:37:14;;;;;;;7.18;2.42;;;18.20;99.90;;;;;;4962984;28;20049;-74
2023/07/11 05:40:00;;;;;;;6.53;2.70;;;18.20;99.90;;;;;;4973658;28;20047;-74
2023/07/11 05:42:46;;;;;;;7.10;2.20;;;18.30;99.90;;;;;;4963026;28;20045;-74
2023/07/11 05:45:32;;;;;;;10.32;2.78;;;18.40;99.90;;;;;;4983771;28;20060;-74
2023/07/11 05:48:18;;;;;;;8.77;2.63;;;18.40;99.90;;;;;;4973129;28;20117;-74
2023/07/11 05:51:09;;;;;;;7.57;2.22;;;18.60;99.90;;;;;;4977090;28;20046;-74
2023/07/11 05:53:55;;;;;;;8.68;2.40;;;18.60;99.90;;;;;;4973979;28;20038;-74
2023/07/11 05:56:41;;;;;;;8.52;2.05;;;18.70;99.90;;;;;;4984281;28;20116;-74
2023/07/11 05:59:27;;;;;;;8.07;2.33;;;18.90;99.90;;;;;;4967721;28;20066;-77
2023/07/11 06:02:21;;;;;;;14.68;2.58;;;19.10;99.90;;;;;;4965528;28;20535;-77
2023/07/11 06:05:19;;;;;;;5.75;2.45;;;19.10;99.90;;;;;;4956190;28;20370;-77
2023/07/11 06:08:05;;;;;;;;;;;19.30;99.90;;;;;;4974368;28;20070;-77
2023/07/11 06:11:12;;;;;;;4.90;1.88;;;19.40;99.90;;;;;;4970075;28;19918;-77
2023/07/11 06:14:03;;;;;;;6.38;1.90;;;19.50;99.90;;;;;;4980847;28;20382;-77
2023/07/11 06:17:02;;;;;;;;;;;;;;;;;;;;;
2023/07/11 06:20:03;;;;;;;;;;;;;;;;;;;;;
2023/07/11 06:26:19;;;;;;;7.88;2.13;;;20.00;99.90;;;;;;4975167;28;20053;-75
2023/07/11 06:29:05;;;;;;;4.80;2.10;;;20.20;99.90;;;;;;4975953;28;20101;-78
2023/07/11 06:32:04;;;;;;;7.22;2.10;;;20.30;99.90;;;;;;4965208;28;20053;-78
2023/07/11 06:35:08;;;;;;;8.55;2.53;;;20.40;99.90;;;;;;4964917;28;20050;-78
2023/07/11 06:38:37;;;;;;;3.95;2.10;;;20.50;99.90;;;;;;4969593;28;20035;-74
2023/07/11 06:41:52;;;;;;;8.73;2.33;;;20.50;99.90;;;;;;4997666;28;20042;-74
2023/07/11 06:45:22;;;;;;;5.28;2.15;;;20.60;99.90;;;;;;4948886;28;20054;-74
2023/07/11 06:48:38;;;;;;;4.65;2.30;;;20.70;99.90;;;;;;4973969;28;20046;-74
2023/07/11 06:51:33;;;;;;;5.50;2.30;;;20.90;99.90;;;;;;4984497;28;20578;-74
2023/07/11 06:54:19;;;;;;;5.07;2.20;;;20.90;99.90;;;;;;4967233;28;20812;-74
2023/07/11 06:57:05;;;;;;;7.90;2.53;;;20.90;99.90;;;;;;4986180;28;20042;-78
2023/07/11 06:59:51;;;;;;;6.15;2.33;;;21.00;99.90;;;;;;4956960;28;20562;-77
2023/07/11 07:02:37;;;;;;;7.05;2.55;;;21.20;99.90;;;;;;4967277;28;20050;-77
2023/07/11 07:05:23;;;;;;;5.88;2.38;;;21.30;99.90;;;;;;4970938;28;20046;-77
2023/07/11 07:08:09;;;;;;;7.18;2.33;;;21.30;99.90;;;;;;4973620;28;20125;-78
2023/07/11 07:10:55;;;;;;;6.15;2.30;;;21.30;99.90;;;;;;4963260;28;20077;-79
2023/07/11 07:13:41;;;;;;;10.35;2.65;;;21.40;99.90;;;;;;4976371;28;20038;-79
2023/07/11 07:16:28;;;;;;;6.18;2.30;;;21.40;99.90;;;;;;4948019;28;20093;-79
2023/07/11 07:19:14;;;;;;;4.32;1.98;;;21.50;99.90;;;;;;4975551;28;20045;-79
2023/07/11 07:22:00;;;;;;;4.90;2.17;;;21.60;99.90;;;;;;4965766;28;20145;-78
2023/07/11 07:24:46;;;;;;;6.25;1.98;;;21.70;99.90;;;;;;4979650;28;20048;-79
2023/07/11 07:27:33;;;;;;;5.17;1.80;;;21.80;99.90;;;;;;4977371;28;20169;-79
2023/07/11 07:30:19;;;;;;;4.80;2.17;;;21.80;99.90;;;;;;4966675;28;20042;-79
2023/07/11 07:33:05;;;;;;;12.75;2.35;;;21.90;99.90;;;;;;4970203;28;20039;-79
2023/07/11 07:36:00;;;;;;;7.10;2.45;;;22.00;99.90;;;;;;4993844;28;20057;-79
2023/07/11 07:38:47;;;;;;;7.38;2.40;;;22.00;99.90;;;;;;4982547;28;20047;-80
2023/07/11 07:41:33;;;;;;;6.13;2.10;;;22.10;99.90;;;;;;4964197;28;20715;-79
2023/07/11 07:44:19;;;;;;;7.50;2.65;;;22.20;99.90;;;;;;4976892;28;20069;-79
2023/07/11 07:47:05;;;;;;;6.28;2.20;;;22.30;99.90;;;;;;4968906;28;20053;-79
2023/07/11 07:49:51;;;;;;;5.18;2.15;;;22.30;99.90;;;;;;4957874;28;20053;-80
2023/07/11 07:52:37;;;;;;;5.30;2.63;;;22.40;99.90;;;;;;4968845;28;20073;-80
2023/07/11 07:55:23;;;;;;;6.38;2.10;;;22.40;99.90;;;;;;4982959;28;20070;-80
2023/07/11 07:58:10;;;;;;;5.90;2.40;;;22.50;99.90;;;;;;4983035;28;20104;-79
2023/07/11 08:00:56;;;;;;;6.13;2.43;;;22.50;99.90;;;;;;4979215;28;20055;-80
2023/07/11 08:03:42;;;;;;;5.88;2.15;;;22.60;99.90;;;;;;4988430;28;20042;-79
2023/07/11 08:06:28;;;;;;;5.38;2.38;;;22.70;99.90;;;;;;4961915;28;20045;-79
2023/07/11 08:09:14;;;;;;;6.22;2.67;;;22.80;99.90;;;;;;4972785;28;20043;-79
2023/07/11 08:12:07;;;;;;;7.97;2.78;;;22.80;99.80;;;;;;4969542;28;20049;-79
2023/07/11 08:14:53;;;;;;;6.60;2.53;;;22.90;99.40;;;;;;4971842;28;20062;-79
2023/07/11 08:17:41;;;;;;;5.68;2.35;;;23.00;99.20;;;;;;4983133;28;20069;-79
2023/07/11 08:20:27;;;;;;;4.05;1.95;;;23.10;99.00;;;;;;4965758;28;20073;-79
2023/07/11 08:23:15;;;;;;;3.95;2.03;;;23.20;99.30;;;;;;4973603;28;20113;-79
2023/07/11 08:26:01;;;;;;;5.53;2.58;;;23.20;99.50;;;;;;4953602;28;20046;-80
2023/07/11 08:28:48;;;;;;;4.95;2.08;;;23.30;99.60;;;;;;4966737;28;20129;-80
2023/07/11 08:31:34;;;;;;;6.05;2.53;;;23.30;98.60;;;;;;4974290;28;20779;-79
2023/07/11 08:34:20;;;;;;;4.22;1.98;;;23.40;98.50;;;;;;4950094;28;20040;-80
2023/07/11 08:37:06;;;;;;;4.97;2.30;;;23.60;98.70;;;;;;4971371;28;20046;-79
2023/07/11 08:39:52;;;;;;;5.88;2.38;;;23.60;98.20;;;;;;4959308;28;20039;-79
2023/07/11 08:42:40;;;;;;;4.43;1.90;;;23.70;97.20;;;;;;4972541;28;20043;-80
2023/07/11 08:45:38;;;;;;;3.47;1.92;;;23.70;97.70;;;;;;4974470;28;20050;-79
2023/07/11 08:48:36;;;;;;;3.85;2.10;;;23.90;97.70;;;;;;4951247;28;20109;-79
2023/07/11 08:51:34;;;;;;;3.90;2.10;;;24.10;97.20;;;;;;4973945;28;20035;-79
2023/07/11 08:54:29;;;;;;;5.00;2.00;;;24.10;96.20;;;;;;4972812;28;20885;-78
2023/07/11 08:57:15;;;;;;;3.35;2.40;;;24.10;95.10;;;;;;4973063;28;20058;-78
2023/07/11 09:00:12;;;;;;;4.60;1.92;;;24.20;96.00;;;;;;4959915;28;20114;-79
2023/07/11 09:03:03;;;;;;;5.80;2.50;;;24.30;96.10;;;;;;4968395;28;20046;-77
2023/07/11 09:05:57;;;;;;;6.68;2.35;;;24.40;95.50;;;;;;4990707;28;20046;-78
2023/07/11 09:08:44;;;;;;;5.60;2.40;;;24.40;94.60;;;;;;4970988;28;20422;-78
2023/07/11 09:11:36;;;;;;;3.97;2.00;;;24.40;94.90;;;;;;4977173;28;20042;-79
2023/07/11 09:14:47;;;;;;;4.70;2.40;;;24.50;94.90;;;;;;4972600;28;20051;-79
2023/07/11 09:17:45;;;;;;;6.88;2.70;;;24.60;94.80;;;;;;4991046;28;20045;-79
2023/07/11 09:20:44;;;;;;;4.88;2.45;;;24.70;94.70;;;;;;4981676;28;20494;-79
2023/07/11 09:23:38;;;;;;;4.80;2.47;;;24.60;94.00;;;;;;4981724;28;20059;-79
2023/07/11 09:26:29;;;;;;;4.20;2.35;;;24.60;94.10;;;;;;4973769;28;20050;-79
2023/07/11 09:29:15;;;;;;;4.65;2.20;;;24.60;94.40;;;;;;4967635;28;20040;-79
2023/07/11 09:32:02;;;;;;;3.92;1.98;;;24.70;94.00;;;;;;4964142;28;20050;-79
2023/07/11 09:34:49;;;;;;;5.53;2.50;;;24.70;94.30;;;;;;4978088;28;20061;-77
2023/07/11 09:37:43;;;;;;;5.25;2.35;;;24.80;94.80;;;;;;4979795;28;20042;-78
2023/07/11 09:40:50;;;;;;;6.10;2.70;;;24.90;94.40;;;;;;4978666;28;20046;-78
2023/07/11 09:43:36;;;;;;;4.65;3.10;;;25.00;94.20;;;;;;4981320;28;20150;-79
2023/07/11 09:46:23;;;;;;;6.00;2.70;;;25.10;94.30;;;;;;4971533;28;20471;-80
2023/07/11 09:49:13;;;;;;;4.97;2.50;;;25.30;93.50;;;;;;4972842;28;20073;-79
2023/07/11 09:51:59;;;;;;;4.00;2.53;;;25.20;93.60;;;;;;4978601;28;20369;-80
2023/07/11 09:54:46;;;;;;;4.55;2.33;;;25.30;93.50;;;;;;4977374;28;20034;-79
2023/07/11 09:57:32;;;;;;;4.88;2.72;;;25.70;93.70;;;;;;4973315;28;20042;-78
2023/07/11 10:00:18;;;;;;;5.95;2.70;;;25.50;93.30;;;;;;4970868;28;20034;-76
2023/07/11 10:03:04;;;;;;;5.00;2.40;;;25.80;93.10;;;;;;4995750;28;20045;-77
2023/07/11 10:05:51;;;;;;;4.38;2.50;;;25.90;93.50;;;;;;4995411;28;20114;-76
2023/07/11 10:08:43;;;;;;;4.10;2.47;;;25.70;93.20;;;;;;4988694;28;20043;-77
2023/07/11 10:11:29;;;;;;;7.78;3.22;;;25.80;92.70;;;;;;4973548;28;20072;-76
2023/07/11 10:14:20;;;;;;;6.78;2.55;;;26.10;92.20;;;;;;4998443;28;20070;-77
2023/07/11 10:17:20;;;;;;;5.35;2.20;;;26.10;91.60;;;;;;4986478;28;20180;-77
2023/07/11 10:20:12;;;;;;;5.43;2.30;;;26.30;92.00;;;;;;5005330;28;20548;-77
2023/07/11 10:23:02;;;;;;;4.80;2.30;;;26.20;91.40;;;;;;4999401;28;20346;-77
2023/07/11 10:25:52;;;;;;;4.63;2.45;;;26.20;91.20;;;;;;4985895;28;20082;-77
2023/07/11 10:28:43;;;;;;;5.25;2.45;;;26.20;91.00;;;;;;4990515;28;20046;-77
2023/07/11 10:31:38;;;;;;;5.13;2.35;;;26.40;91.80;;;;;;4997689;28;20041;-77
2023/07/11 10:34:49;;;;;;;7.10;2.35;;;26.30;91.20;;;;;;4996561;28;20037;-77
2023/07/11 10:37:40;;;;;;;7.18;2.70;;;26.30;90.60;;;;;;4990919;28;20037;-77
2023/07/11 10:40:31;;;;;;;4.82;2.60;;;26.20;90.60;;;;;;4994738;28;20112;-77
2023/07/11 10:43:27;;;;;;;7.80;2.60;;;26.50;90.80;;;;;;4983912;28;20772;-77
2023/07/11 10:46:17;;;;;;;4.85;2.60;;;26.60;88.50;;;;;;4987410;28;20045;-77
2023/07/11 10:49:09;;;;;;;9.20;2.97;;;26.70;87.50;;;;;;4990007;28;20446;-77
2023/07/11 10:52:07;;;;;;;5.05;2.70;;;26.90;89.70;;;;;;4991171;28;20050;-77
2023/07/11 10:55:21;;;;;;;5.85;2.28;;;27.00;88.00;;;;;;4984033;28;20038;-77
2023/07/11 10:58:08;;;;;;;5.60;2.50;;;27.50;87.90;;;;;;4992455;28;20038;-77
2023/07/11 11:01:35;;;;;;;4.80;2.70;;;27.40;86.00;;;;;;4983883;28;20533;-77
2023/07/11 11:04:42;;;;;;;5.38;3.03;;;27.50;87.40;;;;;;4979385;28;20359;-77
2023/07/11 11:07:34;;;;;;;6.22;3.25;;;27.70;82.50;;;;;;4989921;28;20050;-76
2023/07/11 11:10:41;;;;;;;5.22;2.90;;;27.60;83.10;;;;;;4981847;28;20034;-75
2023/07/11 11:13:59;;;;;;;5.60;3.08;;;27.60;82.50;;;;;;4995788;28;20046;-76
2023/07/11 11:17:03;;;;;;;6.60;2.90;;;27.50;83.50;;;;;;4971838;28;20041;-75
2023/07/11 11:20:28;;;;;;;5.18;2.75;;;27.50;83.30;;;;;;4994986;28;20571;-76
2023/07/11 11:23:29;;;;;;;5.80;3.03;;;27.60;84.90;;;;;;4992514;28;20111;-76
2023/07/11 11:26:24;;;;;;;5.88;3.08;;;27.70;82.50;;;;;;4991158;28;20089;-76
2023/07/11 11:29:39;;;;;;;4.80;2.97;;;28.00;83.90;;;;;;4989677;28;20134;-76
2023/07/11 11:32:52;;;;;;;5.82;2.95;;;28.10;84.30;;;;;;4986188;28;20114;-76
2023/07/11 11:36:10;;;;;;;5.55;3.13;;;28.10;83.20;;;;;;4982908;28;20066;-76
2023/07/11 11:39:05;;;;;;;6.00;3.30;;;28.20;84.00;;;;;;4985134;28;20049;-77
2023/07/11 11:41:56;;;;;;;6.18;3.90;;;28.00;82.30;;;;;;5005466;28;20045;-77
2023/07/11 11:44:45;;;;;;;5.68;3.80;;;28.00;82.50;;;;;;4988884;28;20042;-76
2023/07/11 11:47:31;;;;;;;6.28;3.63;;;28.10;81.30;;;;;;4997441;28;20335;-77
2023/07/11 11:50:21;;;;;;;8.70;4.50;;;28.20;82.00;;;;;;4991080;28;20048;-76
2023/07/11 11:53:34;;;;;;;5.72;3.83;;;28.30;80.50;;;;;;4989815;28;20045;-76
2023/07/11 11:56:20;;;;;;;5.70;3.38;;;28.20;77.90;;;;;;4992200;28;20125;-77
2023/07/11 11:59:09;;;;;;;4.55;3.45;;;28.40;81.50;;;;;;4985649;28;20045;-77
2023/07/11 12:01:57;;;;;;;6.22;3.75;;;28.40;81.90;;;;;;4974723;28;20116;-76
2023/07/11 12:05:06;;;;;;;8.68;3.80;;;28.40;83.50;;;;;;4992249;28;20050;-76
2023/07/11 12:08:40;;;;;;;5.68;3.60;;;28.70;83.50;;;;;;4969820;28;20494;-75
2023/07/11 12:11:31;;;;;;;7.60;3.92;;;28.70;81.40;;;;;;4978957;28;20698;-75
2023/07/11 12:14:28;;;;;;;6.72;3.85;;;28.80;83.00;;;;;;4944210;28;20133;-75
2023/07/11 12:17:29;;;;;;;5.28;3.60;;;28.70;82.20;;;;;;4976655;28;20129;-75
2023/07/11 12:20:25;;;;;;;7.53;3.78;;;28.70;83.80;;;;;;4981760;28;20043;-75
2023/07/11 12:23:17;;;;;;;5.90;4.00;;;28.80;83.90;;;;;;4969839;28;20073;-75
2023/07/11 12:26:12;;;;;;;6.60;4.65;;;28.90;83.80;;;;;;4977623;28;20038;-75
2023/07/11 12:29:20;;;;;;;6.00;4.30;;;28.70;77.60;;;;;;4967356;28;20038;-75
2023/07/11 12:32:28;;;;;;;5.93;5.20;;;28.70;78.70;;;;;;4978224;28;20042;-76
2023/07/11 12:35:16;;;;;;;8.30;4.72;;;28.50;77.00;;;;;;4983207;28;20046;-76
2023/07/11 12:38:14;;;;;;;5.63;4.43;;;28.60;78.30;;;;;;4977639;28;20046;-77
2023/07/11 12:41:21;;;;;;;6.32;4.75;;;28.80;78.90;;;;;;4979601;28;20336;-77
2023/07/11 12:44:14;;;;;;;7.72;4.38;;;29.10;80.10;;;;;;4970219;28;20163;-76
2023/07/11 12:47:03;;;;;;;6.38;4.38;;;29.30;80.60;;;;;;4961460;28;20047;-76
2023/07/11 12:49:50;;;;;;;7.32;4.45;;;29.50;79.20;;;;;;4978693;28;20502;-76
2023/07/11 12:52:36;;;;;;;6.50;5.10;;;29.30;76.70;;;;;;4966399;28;20043;-76
2023/07/11 12:55:22;;;;;;;7.50;4.95;;;29.10;77.00;;;;;;4964048;28;20070;-74
2023/07/11 12:58:19;;;;;;;7.35;5.15;;;29.00;77.60;;;;;;4964416;28;20057;-77
2023/07/11 13:01:05;;;;;;;9.02;5.47;;;29.10;77.70;;;;;;4968673;28;20390;-77
2023/07/11 13:03:51;;;;;;;7.10;5.07;;;29.40;77.50;;;;;;4995247;28;20042;-76
2023/07/11 13:06:38;;;;;;;7.38;5.15;;;29.50;78.10;;;;;;4982269;28;20044;-74
2023/07/11 13:09:25;;;;;;;10.10;5.70;;;29.70;75.80;;;;;;4998472;28;20042;-75
2023/07/11 13:12:15;;;;;;;7.47;5.97;;;29.70;77.00;;;;;;4984639;28;20419;-76
2023/07/11 13:15:11;;;;;;;10.15;5.82;;;29.70;75.30;;;;;;4986732;28;20046;-76
2023/07/11 13:18:18;;;;;;;;;;;;;;;;;;;;;
2023/07/11 13:21:05;;;;;;;;;;;29.80;76.40;;;;;;5001732;28;20073;-76
2023/07/11 13:23:53;;;;;;;9.57;5.90;;;29.90;77.70;;;;;;4993178;28;20021;-76
2023/07/11 13:26:42;;;;;;;9.88;6.03;;;29.90;76.40;;;;;;4993009;28;20042;-77
2023/07/11 13:29:34;;;;;;;7.45;5.95;;;30.10;75.70;;;;;;4991580;28;20056;-74
2023/07/11 13:32:39;;;;;;;8.95;6.13;;;30.10;75.80;;;;;;4995255;28;20049;-74
2023/07/11 13:35:43;;;;;;;12.60;5.93;;;30.10;76.30;;;;;;4989534;28;20135;-75
2023/07/11 13:38:58;;;;;;;11.68;6.07;;;30.10;76.40;;;;;;4979390;28;20046;-75
2023/07/11 13:42:19;;;;;;;11.18;6.00;;;30.20;74.70;;;;;;5007779;28;20056;-74
2023/07/11 13:45:26;;;;;;;;;;;;;;;;;;;;;
2023/07/11 13:48:24;;;;;;;8.38;5.93;;;30.40;75.80;;;;;;4983880;28;20139;-75
2023/07/11 13:51:35;;;;;;;8.48;5.95;;;30.30;74.30;;;;;;4995213;28;20060;-74
2023/07/11 13:54:47;;;;;;;8.27;5.70;;;30.10;75.30;;;;;;4994119;28;20512;-75
2023/07/11 13:57:35;;;;;;;8.50;6.45;;;30.00;75.30;;;;;;5000270;28;20494;-75
2023/07/11 14:00:24;;;;;;;7.95;6.15;;;30.00;76.30;;;;;;4996587;28;20274;-77
2023/07/11 14:03:29;;;;;;;8.63;6.00;;;30.20;76.50;;;;;;4998768;28;20077;-76
2023/07/11 14:06:19;;;;;;;7.22;5.80;;;30.10;76.40;;;;;;4994164;28;20133;-77
2023/07/11 14:09:06;;;;;;;9.20;5.93;;;30.10;76.40;;;;;;4996577;28;20051;-76
2023/07/11 14:11:52;;;;;;;10.10;5.80;;;30.20;75.20;;;;;;4987374;28;20042;-77
2023/07/11 14:14:38;;;;;;;9.32;6.80;;;30.30;76.40;;;;;;4983597;28;20125;-77
2023/07/11 14:17:24;;;;;;;9.30;6.72;;;30.50;75.80;;;;;;4987820;28;20060;-77
2023/07/11 14:20:14;;;;;;;10.35;6.38;;;30.70;75.40;;;;;;4986432;28;20038;-78
2023/07/11 14:23:00;;;;;;;9.20;6.28;;;30.70;74.80;;;;;;4994922;28;20038;-77
2023/07/11 14:25:46;;;;;;;9.77;6.03;;;30.80;74.70;;;;;;5003738;28;20058;-77
2023/07/11 14:28:32;;;;;;;7.88;5.97;;;30.80;73.50;;;;;;4985857;28;20084;-77
2023/07/11 14:31:19;;;;;;;9.93;6.75;;;31.00;71.30;;;;;;4990916;28;20042;-78
2023/07/11 14:34:17;;;;;;;8.02;6.15;;;31.20;71.50;;;;;;4999282;28;20730;-77
2023/07/11 14:37:03;;;;;;;6.95;6.00;;;30.90;69.30;;;;;;4994833;28;20038;-77
2023/07/11 14:39:49;;;;;;;7.18;6.30;;;31.20;68.80;;;;;;4992074;28;20149;-78
2023/07/11 14:42:35;;;;;;;9.05;6.90;;;31.10;67.60;;;;;;4998084;28;20169;-77
2023/07/11 14:45:22;;;;;;;9.40;6.20;;;31.10;68.30;;;;;;4980055;28;20038;-77
2023/07/11 14:48:18;;;;;;;9.73;6.30;;;30.80;67.50;;;;;;4988500;28;20060;-77
2023/07/11 14:51:04;;;;;;;10.82;6.15;;;30.80;69.50;;;;;;4991679;28;20104;-77
2023/07/11 14:53:50;;;;;;;9.35;5.80;;;30.90;68.70;;;;;;4994677;28;20034;-78
2023/07/11 14:56:36;;;;;;;9.05;6.28;;;30.90;68.10;;;;;;4992764;28;20035;-78